sensor_id;sensor_type;location;lat;lon;timestamp;temperature;humidity
56115;DHT22;41988;53.020;6.576;2022-08-07T00:00:14;11.90;99.90
56115;DHT22;41988;53.020;6.576;2022-08-07T00:02:59;11.90;99.90
56115;DHT22;41988;53.020;6.576;2022-08-07T00:05:43;11.90;99.90
56115;DHT22;41988;53.020;6.576;2022-08-07T00:08:28;11.90;99.90
56115;DHT22;41988;53.020;6.576;2022-08-07T00:11:12;11.80;99.90
56115;DHT22;41988;53.020;6.576;2022-08-07T00:13:56;11.80;99.90
56115;DHT22;41988;53.020;6.576;2022-08-07T00:16:41;11.80;99.90
56115;DHT22;41988;53.020;6.576;2022-08-07T00:19:25;11.80;99.90
56115;DHT22;41988;53.020;6.576;2022-08-07T00:22:11;11.70;99.90
56115;DHT22;41988;53.020;6.576;2022-08-07T00:24:55;11.80;99.90
56115;DHT22;41988;53.020;6.576;2022-08-07T00:27:39;11.80;99.90
56115;DHT22;41988;53.020;6.576;2022-08-07T00:30:24;11.70;99.90
56115;DHT22;41988;53.020;6.576;2022-08-07T00:33:08;11.60;99.90
56115;DHT22;41988;53.020;6.576;2022-08-07T00:35:56;11.60;99.90
56115;DHT22;41988;53.020;6.576;2022-08-07T00:38:40;11.60;99.90
56115;DHT22;41988;53.020;6.576;2022-08-07T00:41:26;11.60;99.90
56115;DHT22;41988;53.020;6.576;2022-08-07T00:44:14;11.60;99.90
56115;DHT22;41988;53.020;6.576;2022-08-07T00:46:58;11.60;99.90
56115;DHT22;41988;53.020;6.576;2022-08-07T00:49:42;11.50;99.90
56115;DHT22;41988;53.020;6.576;2022-08-07T00:52:26;11.50;99.90
56115;DHT22;41988;53.020;6.576;2022-08-07T00:55:10;11.50;99.90
56115;DHT22;41988;53.020;6.576;2022-08-07T00:57:54;11.50;99.90
56115;DHT22;41988;53.020;6.576;2022-08-07T01:00:38;11.50;99.90
56115;DHT22;41988;53.020;6.576;2022-08-07T01:03:22;11.40;99.90
56115;DHT22;41988;53.020;6.576;2022-08-07T01:06:07;11.30;99.90
56115;DHT22;41988;53.020;6.576;2022-08-07T01:08:51;11.40;99.90
56115;DHT22;41988;53.020;6.576;2022-08-07T01:11:36;11.40;99.90
56115;DHT22;41988;53.020;6.576;2022-08-07T01:14:21;11.40;99.90
56115;DHT22;41988;53.020;6.576;2022-08-07T01:17:06;11.40;99.90
56115;DHT22;41988;53.020;6.576;2022-08-07T01:19:53;11.40;99.90
56115;DHT22;41988;53.020;6.576;2022-08-07T01:22:39;11.40;99.90
56115;DHT22;41988;53.020;6.576;2022-08-07T01:25:24;11.40;99.90
56115;DHT22;41988;53.020;6.576;2022-08-07T01:28:09;11.30;99.90
56115;DHT22;41988;53.020;6.576;2022-08-07T01:30:54;11.30;99.90
56115;DHT22;41988;53.020;6.576;2022-08-07T01:33:39;11.30;99.90
56115;DHT22;41988;53.020;6.576;2022-08-07T01:36:25;11.30;99.90
56115;DHT22;41988;53.020;6.576;2022-08-07T01:39:10;11.20;99.90
56115;DHT22;41988;53.020;6.576;2022-08-07T01:41:55;11.20;99.90
56115;DHT22;41988;53.020;6.576;2022-08-07T01:44:40;11.20;99.90
56115;DHT22;41988;53.020;6.576;2022-08-07T01:47:24;11.10;99.90
56115;DHT22;41988;53.020;6.576;2022-08-07T01:50:09;11.20;99.90
56115;DHT22;41988;53.020;6.576;2022-08-07T01:52:56;11.20;99.90
56115;DHT22;41988;53.020;6.576;2022-08-07T01:55:49;11.10;99.90
56115;DHT22;41988;53.020;6.576;2022-08-07T01:58:37;11.10;99.90
56115;DHT22;41988;53.020;6.576;2022-08-07T02:01:32;11.00;99.90
56115;DHT22;41988;53.020;6.576;2022-08-07T02:04:24;11.00;99.90
56115;DHT22;41988;53.020;6.576;2022-08-07T02:07:11;10.90;99.90
56115;DHT22;41988;53.020;6.576;2022-08-07T02:09:57;10.90;99.90
56115;DHT22;41988;53.020;6.576;2022-08-07T02:12:44;10.90;99.90
56115;DHT22;41988;53.020;6.576;2022-08-07T02:15:30;10.90;99.90
56115;DHT22;41988;53.020;6.576;2022-08-07T02:18:14;10.90;99.90
56115;DHT22;41988;53.020;6.576;2022-08-07T02:21:02;10.80;99.90
56115;DHT22;41988;53.020;6.576;2022-08-07T02:23:47;10.80;99.90
56115;DHT22;41988;53.020;6.576;2022-08-07T02:26:33;10.80;99.90
56115;DHT22;41988;53.020;6.576;2022-08-07T02:29:18;10.80;99.90
56115;DHT22;41988;53.020;6.576;2022-08-07T02:32:04;10.80;99.90
56115;DHT22;41988;53.020;6.576;2022-08-07T02:34:50;10.70;99.90
56115;DHT22;41988;53.020;6.576;2022-08-07T02:37:38;10.70;99.90
56115;DHT22;41988;53.020;6.576;2022-08-07T02:40:23;10.70;99.90
56115;DHT22;41988;53.020;6.576;2022-08-07T02:43:08;10.70;99.90
56115;DHT22;41988;53.020;6.576;2022-08-07T02:45:54;10.70;99.90
56115;DHT22;41988;53.020;6.576;2022-08-07T02:48:40;10.70;99.90
56115;DHT22;41988;53.020;6.576;2022-08-07T02:51:25;10.70;99.90
56115;DHT22;41988;53.020;6.576;2022-08-07T02:54:11;10.70;99.90
56115;DHT22;41988;53.020;6.576;2022-08-07T02:56:57;10.70;99.90
56115;DHT22;41988;53.020;6.576;2022-08-07T02:59:43;10.60;99.90
56115;DHT22;41988;53.020;6.576;2022-08-07T03:02:33;10.60;99.90
56115;DHT22;41988;53.020;6.576;2022-08-07T03:05:19;10.60;99.90
56115;DHT22;41988;53.020;6.576;2022-08-07T03:08:04;10.60;99.90
56115;DHT22;41988;53.020;6.576;2022-08-07T03:10:48;10.60;99.90
56115;DHT22;41988;53.020;6.576;2022-08-07T03:13:33;10.60;99.90
56115;DHT22;41988;53.020;6.576;2022-08-07T03:16:19;10.60;99.90
56115;DHT22;41988;53.020;6.576;2022-08-07T03:19:03;10.60;99.90
56115;DHT22;41988;53.020;6.576;2022-08-07T03:21:49;10.50;99.90
56115;DHT22;41988;53.020;6.576;2022-08-07T03:24:34;10.50;99.90
56115;DHT22;41988;53.020;6.576;2022-08-07T03:27:19;10.50;99.90
56115;DHT22;41988;53.020;6.576;2022-08-07T03:30:04;10.50;99.90
56115;DHT22;41988;53.020;6.576;2022-08-07T03:32:51;10.50;99.90
56115;DHT22;41988;53.020;6.576;2022-08-07T03:35:38;10.50;99.90
56115;DHT22;41988;53.020;6.576;2022-08-07T03:38:23;10.50;99.90
56115;DHT22;41988;53.020;6.576;2022-08-07T03:41:09;10.50;99.90
56115;DHT22;41988;53.020;6.576;2022-08-07T03:43:53;10.40;99.90
56115;DHT22;41988;53.020;6.576;2022-08-07T03:46:38;10.40;99.90
56115;DHT22;41988;53.020;6.576;2022-08-07T03:49:25;10.40;99.90
56115;DHT22;41988;53.020;6.576;2022-08-07T03:52:10;10.40;99.90
56115;DHT22;41988;53.020;6.576;2022-08-07T03:54:59;10.40;99.90
56115;DHT22;41988;53.020;6.576;2022-08-07T03:57:44;10.40;99.90
56115;DHT22;41988;53.020;6.576;2022-08-07T04:00:30;10.30;99.90
56115;DHT22;41988;53.020;6.576;2022-08-07T04:03:16;10.40;99.90
56115;DHT22;41988;53.020;6.576;2022-08-07T04:06:00;10.40;99.90
56115;DHT22;41988;53.020;6.576;2022-08-07T04:08:45;10.40;99.90
56115;DHT22;41988;53.020;6.576;2022-08-07T04:11:30;10.30;99.90
56115;DHT22;41988;53.020;6.576;2022-08-07T04:14:15;10.20;99.90
56115;DHT22;41988;53.020;6.576;2022-08-07T04:17:00;10.30;99.90
56115;DHT22;41988;53.020;6.576;2022-08-07T04:19:44;10.30;99.90
56115;DHT22;41988;53.020;6.576;2022-08-07T04:22:29;10.30;99.90
56115;DHT22;41988;53.020;6.576;2022-08-07T04:25:14;10.40;99.90
56115;DHT22;41988;53.020;6.576;2022-08-07T04:27:59;10.30;99.90
56115;DHT22;41988;53.020;6.576;2022-08-07T04:30:47;10.40;99.90
56115;DHT22;41988;53.020;6.576;2022-08-07T04:33:32;10.40;99.90
56115;DHT22;41988;53.020;6.576;2022-08-07T04:36:18;10.40;99.90
56115;DHT22;41988;53.020;6.576;2022-08-07T04:39:03;10.40;99.90
56115;DHT22;41988;53.020;6.576;2022-08-07T04:41:48;10.40;99.90
56115;DHT22;41988;53.020;6.576;2022-08-07T04:44:31;10.40;99.90
56115;DHT22;41988;53.020;6.576;2022-08-07T04:47:26;10.40;99.90
56115;DHT22;41988;53.020;6.576;2022-08-07T04:50:36;10.50;99.90
56115;DHT22;41988;53.020;6.576;2022-08-07T04:53:30;10.50;99.90
56115;DHT22;41988;53.020;6.576;2022-08-07T04:56:20;10.60;99.90
56115;DHT22;41988;53.020;6.576;2022-08-07T04:59:10;10.50;99.90
56115;DHT22;41988;53.020;6.576;2022-08-07T05:02:04;10.70;99.90
56115;DHT22;41988;53.020;6.576;2022-08-07T05:08:11;10.80;99.90
56115;DHT22;41988;53.020;6.576;2022-08-07T05:11:07;10.90;99.90
56115;DHT22;41988;53.020;6.576;2022-08-07T05:13:58;11.00;99.90
56115;DHT22;41988;53.020;6.576;2022-08-07T05:16:44;11.10;99.90
56115;DHT22;41988;53.020;6.576;2022-08-07T05:19:37;11.20;99.90
56115;DHT22;41988;53.020;6.576;2022-08-07T05:22:23;11.30;99.90
56115;DHT22;41988;53.020;6.576;2022-08-07T05:25:10;11.30;99.90
56115;DHT22;41988;53.020;6.576;2022-08-07T05:27:55;11.40;99.90
56115;DHT22;41988;53.020;6.576;2022-08-07T05:30:41;11.50;99.90
56115;DHT22;41988;53.020;6.576;2022-08-07T05:33:27;11.60;99.90
56115;DHT22;41988;53.020;6.576;2022-08-07T05:36:13;11.60;99.90
56115;DHT22;41988;53.020;6.576;2022-08-07T05:38:58;11.70;99.90
56115;DHT22;41988;53.020;6.576;2022-08-07T05:41:43;11.80;99.90
56115;DHT22;41988;53.020;6.576;2022-08-07T05:44:33;11.90;99.90
56115;DHT22;41988;53.020;6.576;2022-08-07T05:47:18;12.00;99.90
56115;DHT22;41988;53.020;6.576;2022-08-07T05:50:03;12.10;99.90
56115;DHT22;41988;53.020;6.576;2022-08-07T05:52:48;12.30;99.90
56115;DHT22;41988;53.020;6.576;2022-08-07T05:55:33;12.40;99.90
56115;DHT22;41988;53.020;6.576;2022-08-07T05:58:18;12.50;99.90
56115;DHT22;41988;53.020;6.576;2022-08-07T06:01:05;12.70;99.90
56115;DHT22;41988;53.020;6.576;2022-08-07T06:03:53;12.80;99.90
56115;DHT22;41988;53.020;6.576;2022-08-07T06:06:38;13.00;99.90
56115;DHT22;41988;53.020;6.576;2022-08-07T06:09:23;13.10;99.90
56115;DHT22;41988;53.020;6.576;2022-08-07T06:12:07;13.30;99.90
56115;DHT22;41988;53.020;6.576;2022-08-07T06:14:52;13.40;99.90
56115;DHT22;41988;53.020;6.576;2022-08-07T06:17:37;13.60;99.90
56115;DHT22;41988;53.020;6.576;2022-08-07T06:20:22;13.70;99.90
56115;DHT22;41988;53.020;6.576;2022-08-07T06:23:07;13.90;99.90
56115;DHT22;41988;53.020;6.576;2022-08-07T06:25:52;14.10;99.90
56115;DHT22;41988;53.020;6.576;2022-08-07T06:28:47;14.30;99.90
56115;DHT22;41988;53.020;6.576;2022-08-07T06:31:32;14.50;99.90
56115;DHT22;41988;53.020;6.576;2022-08-07T06:34:16;14.60;99.90
56115;DHT22;41988;53.020;6.576;2022-08-07T06:37:00;14.80;99.90
56115;DHT22;41988;53.020;6.576;2022-08-07T06:39:44;15.00;99.90
56115;DHT22;41988;53.020;6.576;2022-08-07T06:42:33;15.10;99.90
56115;DHT22;41988;53.020;6.576;2022-08-07T06:45:21;15.30;99.90
56115;DHT22;41988;53.020;6.576;2022-08-07T06:48:06;15.40;99.90
56115;DHT22;41988;53.020;6.576;2022-08-07T06:50:52;15.60;99.90
56115;DHT22;41988;53.020;6.576;2022-08-07T06:53:39;15.70;99.90
56115;DHT22;41988;53.020;6.576;2022-08-07T06:56:24;15.90;99.90
56115;DHT22;41988;53.020;6.576;2022-08-07T06:59:26;16.00;99.90
56115;DHT22;41988;53.020;6.576;2022-08-07T07:02:19;16.10;99.90
56115;DHT22;41988;53.020;6.576;2022-08-07T07:05:04;16.30;99.90
56115;DHT22;41988;53.020;6.576;2022-08-07T07:07:49;16.40;99.90
56115;DHT22;41988;53.020;6.576;2022-08-07T07:10:34;16.60;99.90
56115;DHT22;41988;53.020;6.576;2022-08-07T07:13:31;16.70;99.90
56115;DHT22;41988;53.020;6.576;2022-08-07T07:16:20;16.90;99.90
56115;DHT22;41988;53.020;6.576;2022-08-07T07:19:06;17.10;99.90
56115;DHT22;41988;53.020;6.576;2022-08-07T07:21:52;17.20;99.90
56115;DHT22;41988;53.020;6.576;2022-08-07T07:24:39;17.40;99.90
56115;DHT22;41988;53.020;6.576;2022-08-07T07:27:28;17.60;99.90
56115;DHT22;41988;53.020;6.576;2022-08-07T07:30:13;18.40;99.90
56115;DHT22;41988;53.020;6.576;2022-08-07T07:32:59;19.20;99.90
56115;DHT22;41988;53.020;6.576;2022-08-07T07:35:47;19.50;99.90
56115;DHT22;41988;53.020;6.576;2022-08-07T07:38:33;19.70;99.90
56115;DHT22;41988;53.020;6.576;2022-08-07T07:41:20;19.80;99.90
56115;DHT22;41988;53.020;6.576;2022-08-07T07:44:05;19.80;99.90
56115;DHT22;41988;53.020;6.576;2022-08-07T07:46:50;20.00;99.90
56115;DHT22;41988;53.020;6.576;2022-08-07T07:49:37;20.10;99.90
56115;DHT22;41988;53.020;6.576;2022-08-07T07:52:23;20.30;99.90
56115;DHT22;41988;53.020;6.576;2022-08-07T07:55:09;20.60;99.90
56115;DHT22;41988;53.020;6.576;2022-08-07T07:57:54;20.70;99.90
56115;DHT22;41988;53.020;6.576;2022-08-07T08:00:41;21.00;99.20
56115;DHT22;41988;53.020;6.576;2022-08-07T08:03:28;21.20;99.30
56115;DHT22;41988;53.020;6.576;2022-08-07T08:06:13;21.40;98.80
56115;DHT22;41988;53.020;6.576;2022-08-07T08:08:59;21.60;97.00
56115;DHT22;41988;53.020;6.576;2022-08-07T08:11:45;21.80;96.10
56115;DHT22;41988;53.020;6.576;2022-08-07T08:14:31;22.00;96.40
56115;DHT22;41988;53.020;6.576;2022-08-07T08:17:16;22.20;94.60
56115;DHT22;41988;53.020;6.576;2022-08-07T08:20:05;22.00;94.20
56115;DHT22;41988;53.020;6.576;2022-08-07T08:22:50;22.00;94.70
56115;DHT22;41988;53.020;6.576;2022-08-07T08:25:58;21.90;93.30
56115;DHT22;41988;53.020;6.576;2022-08-07T08:29:03;22.00;92.80
56115;DHT22;41988;53.020;6.576;2022-08-07T08:31:48;22.00;92.00
56115;DHT22;41988;53.020;6.576;2022-08-07T08:34:34;21.80;92.40
56115;DHT22;41988;53.020;6.576;2022-08-07T08:37:22;21.70;92.80
56115;DHT22;41988;53.020;6.576;2022-08-07T08:40:29;21.60;93.50
56115;DHT22;41988;53.020;6.576;2022-08-07T08:43:34;21.80;93.30
56115;DHT22;41988;53.020;6.576;2022-08-07T08:49:52;22.10;91.40
56115;DHT22;41988;53.020;6.576;2022-08-07T08:52:48;22.20;91.10
56115;DHT22;41988;53.020;6.576;2022-08-07T08:55:53;22.10;90.00
56115;DHT22;41988;53.020;6.576;2022-08-07T09:01:44;22.00;90.00
56115;DHT22;41988;53.020;6.576;2022-08-07T09:08:03;21.90;86.70
56115;DHT22;41988;53.020;6.576;2022-08-07T09:11:01;21.90;88.20
56115;DHT22;41988;53.020;6.576;2022-08-07T09:13:56;22.10;90.10
56115;DHT22;41988;53.020;6.576;2022-08-07T09:20:53;22.60;85.40
56115;DHT22;41988;53.020;6.576;2022-08-07T09:23:56;22.70;86.60
56115;DHT22;41988;53.020;6.576;2022-08-07T09:29:56;22.90;84.00
56115;DHT22;41988;53.020;6.576;2022-08-07T09:33:07;22.70;83.00
56115;DHT22;41988;53.020;6.576;2022-08-07T09:39:09;22.80;84.50
56115;DHT22;41988;53.020;6.576;2022-08-07T09:42:47;23.00;83.30
56115;DHT22;41988;53.020;6.576;2022-08-07T09:45:54;22.90;79.10
56115;DHT22;41988;53.020;6.576;2022-08-07T09:54:51;23.40;81.00
56115;DHT22;41988;53.020;6.576;2022-08-07T10:01:29;23.80;78.50
56115;DHT22;41988;53.020;6.576;2022-08-07T10:10:57;23.80;78.50
56115;DHT22;41988;53.020;6.576;2022-08-07T10:13:57;23.90;79.10
56115;DHT22;41988;53.020;6.576;2022-08-07T10:16:56;23.90;72.10
56115;DHT22;41988;53.020;6.576;2022-08-07T10:20:21;23.70;75.70
56115;DHT22;41988;53.020;6.576;2022-08-07T10:35:25;23.90;72.80
56115;DHT22;41988;53.020;6.576;2022-08-07T10:47:39;24.70;70.50
56115;DHT22;41988;53.020;6.576;2022-08-07T10:50:30;24.90;68.00
56115;DHT22;41988;53.020;6.576;2022-08-07T10:53:40;25.00;70.40
56115;DHT22;41988;53.020;6.576;2022-08-07T10:57:31;24.90;68.60
56115;DHT22;41988;53.020;6.576;2022-08-07T11:03:06;25.10;68.40
56115;DHT22;41988;53.020;6.576;2022-08-07T11:05:59;25.20;64.50
56115;DHT22;41988;53.020;6.576;2022-08-07T11:11:34;25.30;63.80
56115;DHT22;41988;53.020;6.576;2022-08-07T11:14:38;25.40;65.20
56115;DHT22;41988;53.020;6.576;2022-08-07T11:17:25;25.40;65.80
56115;DHT22;41988;53.020;6.576;2022-08-07T11:20:21;25.50;63.70
56115;DHT22;41988;53.020;6.576;2022-08-07T11:23:14;25.60;65.00
56115;DHT22;41988;53.020;6.576;2022-08-07T11:26:02;25.70;64.10
56115;DHT22;41988;53.020;6.576;2022-08-07T11:29:05;25.60;61.90
56115;DHT22;41988;53.020;6.576;2022-08-07T11:32:11;25.60;60.30
56115;DHT22;41988;53.020;6.576;2022-08-07T11:35:00;25.60;58.60
56115;DHT22;41988;53.020;6.576;2022-08-07T11:43:40;25.40;56.70
56115;DHT22;41988;53.020;6.576;2022-08-07T11:47:08;25.60;58.90
56115;DHT22;41988;53.020;6.576;2022-08-07T11:50:32;25.70;57.10
56115;DHT22;41988;53.020;6.576;2022-08-07T11:53:41;25.70;56.90
56115;DHT22;41988;53.020;6.576;2022-08-07T11:56:52;25.60;57.10
56115;DHT22;41988;53.020;6.576;2022-08-07T12:09:23;25.50;59.70
56115;DHT22;41988;53.020;6.576;2022-08-07T12:12:11;25.60;55.50
56115;DHT22;41988;53.020;6.576;2022-08-07T12:15:08;25.60;57.40
56115;DHT22;41988;53.020;6.576;2022-08-07T12:18:04;25.90;56.50
56115;DHT22;41988;53.020;6.576;2022-08-07T12:24:26;25.90;63.70
56115;DHT22;41988;53.020;6.576;2022-08-07T12:27:15;25.00;57.80
56115;DHT22;41988;53.020;6.576;2022-08-07T12:30:04;24.60;59.60
56115;DHT22;41988;53.020;6.576;2022-08-07T12:35:34;25.00;60.50
56115;DHT22;41988;53.020;6.576;2022-08-07T12:38:19;25.20;59.00
56115;DHT22;41988;53.020;6.576;2022-08-07T12:41:06;25.30;67.00
56115;DHT22;41988;53.020;6.576;2022-08-07T12:47:20;25.50;57.50
56115;DHT22;41988;53.020;6.576;2022-08-07T12:53:03;25.80;56.80
56115;DHT22;41988;53.020;6.576;2022-08-07T12:56:18;25.90;56.90
56115;DHT22;41988;53.020;6.576;2022-08-07T12:59:11;26.10;55.90
56115;DHT22;41988;53.020;6.576;2022-08-07T13:11:44;25.80;56.90
56115;DHT22;41988;53.020;6.576;2022-08-07T13:21:45;25.70;57.30
56115;DHT22;41988;53.020;6.576;2022-08-07T13:24:24;25.30;56.40
56115;DHT22;41988;53.020;6.576;2022-08-07T13:27:14;24.90;59.20
56115;DHT22;41988;53.020;6.576;2022-08-07T13:30:10;25.00;59.60
56115;DHT22;41988;53.020;6.576;2022-08-07T13:35:47;24.60;58.50
56115;DHT22;41988;53.020;6.576;2022-08-07T13:41:41;24.80;61.40
56115;DHT22;41988;53.020;6.576;2022-08-07T13:44:30;25.10;61.90
56115;DHT22;41988;53.020;6.576;2022-08-07T13:47:16;25.30;61.80
56115;DHT22;41988;53.020;6.576;2022-08-07T13:50:02;25.60;61.40
56115;DHT22;41988;53.020;6.576;2022-08-07T13:52:47;25.80;61.40
56115;DHT22;41988;53.020;6.576;2022-08-07T13:55:34;26.00;60.70
56115;DHT22;41988;53.020;6.576;2022-08-07T13:58:19;25.90;60.20
56115;DHT22;41988;53.020;6.576;2022-08-07T14:01:25;25.70;61.00
56115;DHT22;41988;53.020;6.576;2022-08-07T14:04:11;25.80;59.50
56115;DHT22;41988;53.020;6.576;2022-08-07T14:06:57;25.80;60.10
56115;DHT22;41988;53.020;6.576;2022-08-07T14:09:43;25.90;61.60
56115;DHT22;41988;53.020;6.576;2022-08-07T14:12:56;26.00;60.90
56115;DHT22;41988;53.020;6.576;2022-08-07T14:15:49;26.10;60.60
56115;DHT22;41988;53.020;6.576;2022-08-07T14:18:42;26.10;61.70
56115;DHT22;41988;53.020;6.576;2022-08-07T14:21:39;26.20;60.60
56115;DHT22;41988;53.020;6.576;2022-08-07T14:24:40;26.00;60.70
56115;DHT22;41988;53.020;6.576;2022-08-07T14:27:45;25.80;60.70
56115;DHT22;41988;53.020;6.576;2022-08-07T14:30:32;25.60;58.70
56115;DHT22;41988;53.020;6.576;2022-08-07T14:33:17;25.50;60.70
56115;DHT22;41988;53.020;6.576;2022-08-07T14:36:02;25.40;62.60
56115;DHT22;41988;53.020;6.576;2022-08-07T14:38:47;25.40;61.60
56115;DHT22;41988;53.020;6.576;2022-08-07T14:41:33;25.20;63.00
56115;DHT22;41988;53.020;6.576;2022-08-07T14:44:18;25.20;63.80
56115;DHT22;41988;53.020;6.576;2022-08-07T14:47:05;25.20;62.80
56115;DHT22;41988;53.020;6.576;2022-08-07T14:49:51;25.30;64.30
56115;DHT22;41988;53.020;6.576;2022-08-07T14:52:37;25.50;63.90
56115;DHT22;41988;53.020;6.576;2022-08-07T14:55:29;25.30;63.00
56115;DHT22;41988;53.020;6.576;2022-08-07T14:58:15;24.90;62.60
56115;DHT22;41988;53.020;6.576;2022-08-07T15:01:00;24.60;63.60
56115;DHT22;41988;53.020;6.576;2022-08-07T15:03:47;24.40;63.20
56115;DHT22;41988;53.020;6.576;2022-08-07T15:06:33;24.50;64.50
56115;DHT22;41988;53.020;6.576;2022-08-07T15:09:19;24.70;64.40
56115;DHT22;41988;53.020;6.576;2022-08-07T15:12:08;24.90;63.10
56115;DHT22;41988;53.020;6.576;2022-08-07T15:15:03;25.00;62.00
56115;DHT22;41988;53.020;6.576;2022-08-07T15:17:58;24.90;61.90
56115;DHT22;41988;53.020;6.576;2022-08-07T15:20:45;24.70;61.50
56115;DHT22;41988;53.020;6.576;2022-08-07T15:23:32;24.60;63.00
56115;DHT22;41988;53.020;6.576;2022-08-07T15:26:21;24.80;63.00
56115;DHT22;41988;53.020;6.576;2022-08-07T15:29:14;24.90;62.90
56115;DHT22;41988;53.020;6.576;2022-08-07T15:32:01;24.70;60.50
56115;DHT22;41988;53.020;6.576;2022-08-07T15:34:49;24.70;60.70
56115;DHT22;41988;53.020;6.576;2022-08-07T15:40:24;24.50;62.00
56115;DHT22;41988;53.020;6.576;2022-08-07T15:45:56;24.20;63.50
56115;DHT22;41988;53.020;6.576;2022-08-07T15:48:42;24.10;65.10
56115;DHT22;41988;53.020;6.576;2022-08-07T15:51:27;24.00;66.60
56115;DHT22;41988;53.020;6.576;2022-08-07T15:54:12;24.00;67.10
56115;DHT22;41988;53.020;6.576;2022-08-07T15:56:58;24.00;67.60
56115;DHT22;41988;53.020;6.576;2022-08-07T15:59:45;24.00;66.30
56115;DHT22;41988;53.020;6.576;2022-08-07T16:02:33;23.90;66.20
56115;DHT22;41988;53.020;6.576;2022-08-07T16:05:20;23.60;66.10
56115;DHT22;41988;53.020;6.576;2022-08-07T16:08:11;23.50;71.20
56115;DHT22;41988;53.020;6.576;2022-08-07T16:11:02;23.60;69.40
56115;DHT22;41988;53.020;6.576;2022-08-07T16:14:11;23.30;71.60
56115;DHT22;41988;53.020;6.576;2022-08-07T16:20:00;22.90;77.00
56115;DHT22;41988;53.020;6.576;2022-08-07T16:26:26;22.90;74.80
56115;DHT22;41988;53.020;6.576;2022-08-07T16:32:34;22.70;70.70
56115;DHT22;41988;53.020;6.576;2022-08-07T16:35:25;22.70;71.40
56115;DHT22;41988;53.020;6.576;2022-08-07T16:51:52;23.10;69.80
56115;DHT22;41988;53.020;6.576;2022-08-07T16:54:59;23.00;70.20
56115;DHT22;41988;53.020;6.576;2022-08-07T16:58:15;22.70;70.40
56115;DHT22;41988;53.020;6.576;2022-08-07T17:01:58;23.10;69.30
56115;DHT22;41988;53.020;6.576;2022-08-07T17:07:57;22.90;69.50
56115;DHT22;41988;53.020;6.576;2022-08-07T17:10:53;22.60;68.80
56115;DHT22;41988;53.020;6.576;2022-08-07T17:15:03;22.50;69.90
56115;DHT22;41988;53.020;6.576;2022-08-07T17:20:35;21.50;74.90
56115;DHT22;41988;53.020;6.576;2022-08-07T17:26:38;22.00;72.50
56115;DHT22;41988;53.020;6.576;2022-08-07T17:29:55;21.80;88.10
56115;DHT22;41988;53.020;6.576;2022-08-07T17:35:38;21.70;77.20
56115;DHT22;41988;53.020;6.576;2022-08-07T17:38:39;21.50;80.80
56115;DHT22;41988;53.020;6.576;2022-08-07T17:41:37;21.30;80.30
56115;DHT22;41988;53.020;6.576;2022-08-07T17:44:41;21.70;83.40
56115;DHT22;41988;53.020;6.576;2022-08-07T17:53:12;21.00;90.00
56115;DHT22;41988;53.020;6.576;2022-08-07T17:56:34;21.10;90.80
56115;DHT22;41988;53.020;6.576;2022-08-07T17:59:33;20.80;88.30
56115;DHT22;41988;53.020;6.576;2022-08-07T18:02:33;21.00;91.00
56115;DHT22;41988;53.020;6.576;2022-08-07T18:05:27;20.60;90.80
56115;DHT22;41988;53.020;6.576;2022-08-07T18:08:13;20.70;90.90
56115;DHT22;41988;53.020;6.576;2022-08-07T18:11:25;20.40;91.30
56115;DHT22;41988;53.020;6.576;2022-08-07T18:14:30;20.30;92.40
56115;DHT22;41988;53.020;6.576;2022-08-07T18:17:35;20.40;92.80
56115;DHT22;41988;53.020;6.576;2022-08-07T18:20:38;19.70;95.30
56115;DHT22;41988;53.020;6.576;2022-08-07T18:23:28;20.10;94.60
56115;DHT22;41988;53.020;6.576;2022-08-07T18:26:19;20.10;95.40
56115;DHT22;41988;53.020;6.576;2022-08-07T18:32:27;19.90;96.50
56115;DHT22;41988;53.020;6.576;2022-08-07T18:35:38;19.70;97.40
56115;DHT22;41988;53.020;6.576;2022-08-07T18:44:49;19.10;99.90
56115;DHT22;41988;53.020;6.576;2022-08-07T18:53:20;19.20;99.90
56115;DHT22;41988;53.020;6.576;2022-08-07T18:56:41;19.10;99.90
56115;DHT22;41988;53.020;6.576;2022-08-07T19:02:37;18.90;99.90
56115;DHT22;41988;53.020;6.576;2022-08-07T19:05:35;18.90;99.90
56115;DHT22;41988;53.020;6.576;2022-08-07T19:11:56;18.70;99.90
56115;DHT22;41988;53.020;6.576;2022-08-07T19:17:51;18.50;99.90
56115;DHT22;41988;53.020;6.576;2022-08-07T19:23:51;18.30;99.90
56115;DHT22;41988;53.020;6.576;2022-08-07T19:26:42;18.20;99.90
56115;DHT22;41988;53.020;6.576;2022-08-07T19:29:27;18.10;99.90
56115;DHT22;41988;53.020;6.576;2022-08-07T19:32:12;18.00;99.90
56115;DHT22;41988;53.020;6.576;2022-08-07T19:35:04;17.60;99.90
56115;DHT22;41988;53.020;6.576;2022-08-07T19:37:57;17.90;99.90
56115;DHT22;41988;53.020;6.576;2022-08-07T19:40:41;17.80;99.90
56115;DHT22;41988;53.020;6.576;2022-08-07T19:43:29;17.70;99.90
56115;DHT22;41988;53.020;6.576;2022-08-07T19:46:15;17.70;99.90
56115;DHT22;41988;53.020;6.576;2022-08-07T19:49:10;17.60;99.90
56115;DHT22;41988;53.020;6.576;2022-08-07T19:51:56;17.60;99.90
56115;DHT22;41988;53.020;6.576;2022-08-07T19:54:44;17.50;99.90
56115;DHT22;41988;53.020;6.576;2022-08-07T19:57:42;17.40;99.90
56115;DHT22;41988;53.020;6.576;2022-08-07T20:00:28;17.80;99.90
56115;DHT22;41988;53.020;6.576;2022-08-07T20:03:19;17.20;99.90
56115;DHT22;41988;53.020;6.576;2022-08-07T20:06:05;17.20;99.90
56115;DHT22;41988;53.020;6.576;2022-08-07T20:08:50;17.10;99.90
56115;DHT22;41988;53.020;6.576;2022-08-07T20:11:35;17.10;99.90
56115;DHT22;41988;53.020;6.576;2022-08-07T20:14:31;16.90;99.90
56115;DHT22;41988;53.020;6.576;2022-08-07T20:17:18;16.90;99.90
56115;DHT22;41988;53.020;6.576;2022-08-07T20:20:04;16.80;99.90
56115;DHT22;41988;53.020;6.576;2022-08-07T20:22:55;16.80;99.90
56115;DHT22;41988;53.020;6.576;2022-08-07T20:25:42;16.70;99.90
56115;DHT22;41988;53.020;6.576;2022-08-07T20:28:27;16.60;99.90
56115;DHT22;41988;53.020;6.576;2022-08-07T20:31:16;16.50;99.90
56115;DHT22;41988;53.020;6.576;2022-08-07T20:34:01;16.50;99.90
56115;DHT22;41988;53.020;6.576;2022-08-07T20:36:49;16.30;99.90
56115;DHT22;41988;53.020;6.576;2022-08-07T20:39:36;16.30;99.90
56115;DHT22;41988;53.020;6.576;2022-08-07T20:42:22;16.30;99.90
56115;DHT22;41988;53.020;6.576;2022-08-07T20:45:09;16.60;99.90
56115;DHT22;41988;53.020;6.576;2022-08-07T20:47:55;16.10;99.90
56115;DHT22;41988;53.020;6.576;2022-08-07T20:50:40;16.10;99.90
56115;DHT22;41988;53.020;6.576;2022-08-07T20:53:26;16.00;99.90
56115;DHT22;41988;53.020;6.576;2022-08-07T20:56:11;16.00;99.90
56115;DHT22;41988;53.020;6.576;2022-08-07T20:59:00;15.90;99.90
56115;DHT22;41988;53.020;6.576;2022-08-07T21:01:47;15.90;99.90
56115;DHT22;41988;53.020;6.576;2022-08-07T21:04:33;15.80;99.90
56115;DHT22;41988;53.020;6.576;2022-08-07T21:07:18;15.80;99.90